メインページ
METAR-TAF:

METAR-TAF

空港 :

ジェネラル・エドワード・ローレンス・ローガン国際空港

ボストン, マサチューセッツ州, アメリカ合衆国

緯度: 42-21-38N, 経度: 071-00-38W, 海抜: 6m

現時点の気象観測

当レポートは24分前の10:54(UTC)に作成
西の風 10kt、最大20ktの突風を伴う
気温 1°C
湿度 47%
気圧 1021 hPa
視程: 16.1km
高度18000ftの雲は散在している

METAR: KBOS 141054Z 28010G20KT 10SM SCT180 01/M09 A3015 RMK AO2 SLP207 T00111094

時間: 06:18 (11:18 UTC)

予報

当レポートは2時間6分前の09:12(UTC)に作成
予報は14日の 09時(UTC)から 15日の 12時(UTC)まで有効
西/北西の風 12kt、最大22ktの突風を伴う
視程: 10km
晴天
14日の 1500時(UTC)から
西/北西の風 17kt、最大35ktの突風を伴う
視程: 10km
高度5000ftの雲はほとんどない
14日の 2200時(UTC)から
西/北西の風 14kt、最大26ktの突風を伴う
視程: 10km
高度5000ftの雲はほとんどない
15日の 0000時(UTC)から
北西の風 11kt、最大20ktの突風を伴う
視程: 10km
晴天
15日の 0300時(UTC)から
北西の風 10kt
視程: 10km
晴天

TAF: KBOS 140912Z 1409/1512 29012G22KT P6SM SKC FM141500 29017G35KT P6SM FEW050 FM142200 30014G26KT P6SM FEW050 FM150000 31011G20KT P6SM SKC FM150300 32010KT P6SM SKC

4,000以上の空港の気象観測と天気予報(METAR報とTAF報)

利用可能な観測所は地図上に黄色い丸と赤い丸で示す。

丸の上にカーソルを重ねると観測所名を参照できる。

次にクリックすると気象観測と天気予報を参照できる。

マップの切り替え:黒色「×」印の緑ボタンをクリックして拡大、「-」印の緑ボタンをクリックして縮小、緑色の三角印をクリックして隣りの地図に切り替え


METAR-TAF: